Time;durP1;ratioP1;P1;durP2;ratioP2;P2;SDS_P1;SDS_P2;PMS_P1;PMS_P2;Temp;Humidity;BMP_temperature;BMP_pressure;BME280_temperature;BME280_humidity;BME280_pressure;Samples;Min_cycle;Max_cycle;Signal;HPM_P1;HPM_P2
2022/10/25 00:02:24;;;;;;;12.50;2.87;;;;;;;;;;5074401;28;20174;-69
2022/10/25 00:04:50;;;;;;;14.53;2.90;;;;;;;;;;5074296;28;20174;-69
2022/10/25 00:07:16;;;;;;;7.40;2.50;;;;;;;;;;5074164;28;20185;-69
2022/10/25 00:09:42;;;;;;;8.23;2.77;;;;;;;;;;5074532;28;20622;-69
2022/10/25 00:12:08;;;;;;;11.87;2.50;;;;;;;;;;5074247;28;20272;-68
2022/10/25 00:14:34;;;;;;;10.27;3.13;;;;;;;;;;5074763;28;20177;-68
2022/10/25 00:17:00;;;;;;;11.83;2.67;;;;;;;;;;5056260;28;20391;-68
2022/10/25 00:19:26;;;;;;;9.40;3.10;;;;;;;;;;5056211;28;20688;-68
2022/10/25 00:21:52;;;;;;;8.67;2.53;;;;;;;;;;5073910;28;20193;-67
2022/10/25 00:24:18;;;;;;;11.37;3.03;;;;;;;;;;5056075;28;20227;-68
2022/10/25 00:26:44;;;;;;;9.43;2.40;;;;;;;;;;5074119;28;20185;-67
2022/10/25 00:29:11;;;;;;;9.93;2.97;;;;;;;;;;5074135;28;20193;-67
2022/10/25 00:31:37;;;;;;;11.00;2.80;;;;;;;;;;5075715;28;20217;-67
2022/10/25 00:34:03;;;;;;;12.00;2.70;;;;;;;;;;5076731;28;20540;-68
2022/10/25 00:36:29;;;;;;;12.37;2.50;;;;;;;;;;5058521;28;20701;-68
2022/10/25 00:38:56;;;;;;;8.50;2.73;;;;;;;;;;5076312;28;20197;-68
2022/10/25 00:41:23;;;;;;;10.27;2.70;;;;;;;;;;5057351;28;20217;-68
2022/10/25 00:43:50;;;;;;;6.63;2.37;;;;;;;;;;5055787;28;20180;-68
2022/10/25 00:46:23;;;;;;;11.07;2.90;;;;;;;;;;5055664;28;20238;-68
2022/10/25 00:48:53;;;;;;;8.77;2.20;;;;;;;;;;5073558;28;20626;-68
2022/10/25 00:51:20;;;;;;;9.13;2.80;;;;;;;;;;5055765;28;20202;-68
2022/10/25 00:53:46;;;;;;;10.30;2.90;;;;;;;;;;5055674;28;20186;-68
2022/10/25 00:56:12;;;;;;;11.87;2.67;;;;;;;;;;5055564;28;20269;-68
2022/10/25 00:58:39;;;;;;;14.50;2.90;;;;;;;;;;5073470;28;20758;-68
2022/10/25 01:01:06;;;;;;;10.87;2.83;;;;;;;;;;5073482;28;20193;-69
2022/10/25 01:03:34;;;;;;;8.27;2.37;;;;;;;;;;5072764;28;20170;-68
2022/10/25 01:06:01;;;;;;;5.63;2.60;;;;;;;;;;5073613;28;20180;-68
2022/10/25 01:08:27;;;;;;;7.27;2.23;;;;;;;;;;5055319;28;20192;-68
2022/10/25 01:10:53;;;;;;;7.50;2.80;;;;;;;;;;5075309;28;20205;-67
2022/10/25 01:13:19;;;;;;;8.23;2.77;;;;;;;;;;5063697;28;20239;-67
2022/10/25 01:15:48;;;;;;;10.47;2.73;;;;;;;;;;5064150;28;20182;-68
2022/10/25 01:18:22;;;;;;;7.67;2.40;;;;;;;;;;5082419;28;20271;-68
2022/10/25 01:21:01;;;;;;;7.93;2.33;;;;;;;;;;5076335;28;20190;-68
2022/10/25 01:23:39;;;;;;;11.83;2.90;;;;;;;;;;5055335;28;20188;-68
2022/10/25 01:26:17;;;;;;;9.47;2.97;;;;;;;;;;5073599;28;20158;-68
2022/10/25 01:28:52;;;;;;;11.00;2.80;;;;;;;;;;5055509;28;20205;-67
2022/10/25 01:31:35;;;;;;;12.23;2.77;;;;;;;;;;5073386;28;20258;-68
2022/10/25 01:34:05;;;;;;;11.77;3.27;;;;;;;;;;5073128;28;20166;-68
2022/10/25 01:36:49;;;;;;;7.87;2.30;;;;;;;;;;5055223;28;20186;-68
2022/10/25 01:39:24;;;;;;;6.03;2.37;;;;;;;;;;5073187;28;20269;-68
2022/10/25 01:41:53;;;;;;;9.07;2.93;;;;;;;;;;5073163;28;20268;-67
2022/10/25 01:44:37;;;;;;;11.90;2.50;;;;;;;;;;5073113;28;20178;-68
2022/10/25 01:47:06;;;;;;;8.47;2.53;;;;;;;;;;5055284;28;20209;-68
2022/10/25 01:49:37;;;;;;;7.07;2.43;;;;;;;;;;5072974;28;20178;-68
2022/10/25 01:52:03;;;;;;;6.73;2.70;;;;;;;;;;5073137;28;20250;-68
2022/10/25 01:54:29;;;;;;;10.57;2.87;;;;;;;;;;5072999;28;20552;-68
2022/10/25 01:57:15;;;;;;;7.33;2.70;;;;;;;;;;5073390;28;20520;-68
2022/10/25 01:59:42;;;;;;;9.50;2.57;;;;;;;;;;5054771;28;20185;-68
2022/10/25 02:02:08;;;;;;;7.00;2.70;;;;;;;;;;5072820;28;20285;-68
2022/10/25 02:04:50;;;;;;;11.70;2.60;;;;;;;;;;5073038;28;20206;-68
2022/10/25 02:07:22;;;;;;;7.53;2.47;;;;;;;;;;5072911;28;20213;-69
2022/10/25 02:10:00;;;;;;;13.73;3.30;;;;;;;;;;5054881;28;20626;-68
2022/10/25 02:12:55;;;;;;;14.07;2.87;;;;;;;;;;5073320;28;20193;-68
2022/10/25 02:15:29;;;;;;;10.60;2.67;;;;;;;;;;5059307;28;20194;-68
2022/10/25 02:17:58;;;;;;;12.40;3.10;;;;;;;;;;5076719;28;20194;-69
2022/10/25 02:20:25;;;;;;;8.73;2.93;;;;;;;;;;5076320;28;20200;-68
2022/10/25 02:22:52;;;;;;;13.30;3.43;;;;;;;;;;5058387;28;20266;-68
2022/10/25 02:25:19;;;;;;;12.47;3.10;;;;;;;;;;5076302;28;20173;-68
2022/10/25 02:27:45;;;;;;;9.07;2.73;;;;;;;;;;5058399;28;20205;-68
2022/10/25 02:30:11;;;;;;;8.77;2.50;;;;;;;;;;5075865;28;20178;-68
2022/10/25 02:32:37;;;;;;;11.07;2.77;;;;;;;;;;5076295;28;20181;-68
2022/10/25 02:35:03;;;;;;;6.77;2.63;;;;;;;;;;5076292;28;20205;-68
2022/10/25 02:37:31;;;;;;;9.60;2.63;;;;;;;;;;5076021;28;20586;-70
2022/10/25 02:39:57;;;;;;;11.37;3.03;;;;;;;;;;5076281;28;20178;-68
2022/10/25 02:42:23;;;;;;;11.60;2.77;;;;;;;;;;5076173;28;20178;-68
2022/10/25 02:44:49;;;;;;;8.47;2.40;;;;;;;;;;5076215;28;20178;-67
2022/10/25 02:47:15;;;;;;;10.90;3.03;;;;;;;;;;5075952;28;20189;-67
2022/10/25 02:49:41;;;;;;;10.40;2.30;;;;;;;;;;5076335;28;20188;-67
2022/10/25 02:52:07;;;;;;;10.23;2.80;;;;;;;;;;5057873;28;20198;-68
2022/10/25 02:54:32;;;;;;;10.67;3.20;;;;;;;;;;5076408;28;20656;-67
2022/10/25 02:56:58;;;;;;;12.63;2.87;;;;;;;;;;5076157;28;20638;-67
2022/10/25 02:59:24;;;;;;;6.80;2.30;;;;;;;;;;5075950;28;20173;-68
2022/10/25 03:01:50;;;;;;;13.40;2.60;;;;;;;;;;5057846;28;20201;-68
2022/10/25 03:04:16;;;;;;;6.63;2.23;;;;;;;;;;5057812;28;20181;-69
2022/10/25 03:06:42;;;;;;;10.47;2.20;;;;;;;;;;5075890;28;20180;-67
2022/10/25 03:09:08;;;;;;;9.47;2.53;;;;;;;;;;5057386;28;20189;-68
2022/10/25 03:11:34;;;;;;;8.87;2.50;;;;;;;;;;5075249;28;20198;-68
2022/10/25 03:14:00;;;;;;;10.40;2.33;;;;;;;;;;5075388;28;20234;-68
2022/10/25 03:16:26;;;;;;;13.17;2.70;;;;;;;;;;5075144;28;20178;-68
2022/10/25 03:18:52;;;;;;;15.40;2.73;;;;;;;;;;5057176;28;20229;-68
2022/10/25 03:21:18;;;;;;;8.13;2.20;;;;;;;;;;5075003;28;20193;-68
2022/10/25 03:23:44;;;;;;;7.83;2.30;;;;;;;;;;5075198;28;20226;-68
2022/10/25 03:26:10;;;;;;;6.70;2.30;;;;;;;;;;5074549;28;20210;-68
2022/10/25 03:28:36;;;;;;;11.67;2.70;;;;;;;;;;5074981;28;20181;-68
2022/10/25 03:31:02;;;;;;;11.27;2.53;;;;;;;;;;5056712;28;20228;-68
2022/10/25 03:33:28;;;;;;;9.33;2.70;;;;;;;;;;5057116;28;20276;-68
2022/10/25 03:35:54;;;;;;;7.17;2.23;;;;;;;;;;5075029;28;20185;-68
2022/10/25 03:38:20;;;;;;;11.70;2.33;;;;;;;;;;5074877;28;20208;-67
2022/10/25 03:40:46;;;;;;;9.63;2.50;;;;;;;;;;5056773;28;20310;-68
2022/10/25 03:43:12;;;;;;;12.03;2.97;;;;;;;;;;5074663;28;20268;-68
2022/10/25 03:45:38;;;;;;;6.83;2.03;;;;;;;;;;5074792;28;20170;-68
2022/10/25 03:48:04;;;;;;;9.03;2.30;;;;;;;;;;5056846;28;20189;-68
2022/10/25 03:50:30;;;;;;;14.33;2.50;;;;;;;;;;5074586;28;20208;-70
2022/10/25 03:52:56;;;;;;;10.53;2.50;;;;;;;;;;5074543;28;20178;-69
2022/10/25 03:55:22;;;;;;;8.50;2.83;;;;;;;;;;5074571;28;20178;-70
2022/10/25 03:57:48;;;;;;;6.33;2.43;;;;;;;;;;5074364;28;20202;-70
2022/10/25 04:00:14;;;;;;;9.57;2.57;;;;;;;;;;5074599;28;20264;-70
2022/10/25 04:02:40;;;;;;;12.93;2.67;;;;;;;;;;5074241;28;20266;-70
2022/10/25 04:07:42;;;;;;;7.93;2.37;;;;;;;;;;5051604;28;20297;-67
2022/10/25 04:10:08;;;;;;;9.20;2.40;;;;;;;;;;5036158;28;20269;-68
2022/10/25 04:12:34;;;;;;;7.53;2.10;;;;;;;;;;5054700;28;20186;-67
2022/10/25 04:15:00;;;;;;;9.00;2.60;;;;;;;;;;5053927;28;20182;-67
2022/10/25 04:17:26;;;;;;;13.77;2.83;;;;;;;;;;5053812;28;20217;-67
2022/10/25 04:19:52;;;;;;;11.30;2.93;;;;;;;;;;5036174;28;20183;-66
2022/10/25 04:22:18;;;;;;;11.37;2.50;;;;;;;;;;5036189;28;20189;-67
2022/10/25 04:24:44;;;;;;;14.03;2.90;;;;;;;;;;5036103;28;20639;-67
2022/10/25 04:27:10;;;;;;;11.13;2.80;;;;;;;;;;5035981;28;20213;-67
2022/10/25 04:29:36;;;;;;;7.13;2.33;;;;;;;;;;5035930;28;20222;-67
2022/10/25 04:32:02;;;;;;;6.47;2.60;;;;;;;;;;5053895;28;20186;-67
2022/10/25 04:34:27;;;;;;;9.50;2.70;;;;;;;;;;5053764;28;20183;-67
2022/10/25 04:36:53;;;;;;;6.90;2.57;;;;;;;;;;5036164;28;20234;-67
2022/10/25 04:39:19;;;;;;;12.60;3.70;;;;;;;;;;5053979;28;20171;-67
2022/10/25 04:41:45;;;;;;;9.67;2.70;;;;;;;;;;5053580;28;20186;-67
2022/10/25 04:44:11;;;;;;;9.20;2.60;;;;;;;;;;5053541;28;20179;-67
2022/10/25 04:46:37;;;;;;;7.03;2.50;;;;;;;;;;5035888;28;20209;-67
2022/10/25 04:49:03;;;;;;;14.10;2.90;;;;;;;;;;5053623;28;20185;-65
2022/10/25 04:51:29;;;;;;;13.20;3.10;;;;;;;;;;5035496;28;20187;-66
2022/10/25 04:53:55;;;;;;;7.63;2.87;;;;;;;;;;5053584;28;20265;-67
2022/10/25 04:56:22;;;;;;;9.57;3.33;;;;;;;;;;5054145;28;20209;-66
2022/10/25 04:58:48;;;;;;;8.07;2.27;;;;;;;;;;5053768;28;20229;-66
2022/10/25 05:01:15;;;;;;;10.50;2.70;;;;;;;;;;5035492;28;20673;-66
2022/10/25 05:03:41;;;;;;;7.53;2.67;;;;;;;;;;5053163;28;20177;-66
2022/10/25 05:06:11;;;;;;;9.47;2.80;;;;;;;;;;5035266;28;20214;-66
2022/10/25 05:08:42;;;;;;;12.77;3.27;;;;;;;;;;5053139;28;20182;-65
2022/10/25 05:11:08;;;;;;;8.93;2.43;;;;;;;;;;5035266;28;20273;-66
2022/10/25 05:13:35;;;;;;;8.53;2.87;;;;;;;;;;5053106;28;20179;-66
2022/10/25 05:16:01;;;;;;;9.97;2.90;;;;;;;;;;5052883;28;20198;-66
2022/10/25 05:18:27;;;;;;;7.93;2.77;;;;;;;;;;5035131;28;20296;-66
2022/10/25 05:20:54;;;;;;;8.10;2.80;;;;;;;;;;5053103;28;20209;-65
2022/10/25 05:23:20;;;;;;;11.97;3.27;;;;;;;;;;5052904;28;20247;-66
2022/10/25 05:25:46;;;;;;;7.03;3.33;;;;;;;;;;5053020;28;20664;-67
2022/10/25 05:28:12;;;;;;;8.07;3.00;;;;;;;;;;5034980;28;20264;-67
2022/10/25 05:30:42;;;;;;;17.00;3.00;;;;;;;;;;5053079;28;20175;-67
2022/10/25 05:33:08;;;;;;;8.77;2.97;;;;;;;;;;5052786;28;20178;-67
2022/10/25 05:35:34;;;;;;;8.73;3.00;;;;;;;;;;5034819;28;20207;-67
2022/10/25 05:38:00;;;;;;;7.80;2.93;;;;;;;;;;5052811;28;20719;-66
2022/10/25 05:40:26;;;;;;;10.80;3.30;;;;;;;;;;5052721;28;20209;-66
2022/10/25 05:42:53;;;;;;;8.50;3.20;;;;;;;;;;5053178;28;20199;-67
2022/10/25 05:45:19;;;;;;;8.83;4.23;;;;;;;;;;5052635;28;20181;-67
2022/10/25 05:47:45;;;;;;;10.40;2.97;;;;;;;;;;5053186;28;20590;-67
2022/10/25 05:50:11;;;;;;;8.23;3.17;;;;;;;;;;5056560;28;20651;-67
2022/10/25 05:52:37;;;;;;;10.00;3.30;;;;;;;;;;5056691;28;20187;-67
2022/10/25 05:55:03;;;;;;;10.43;2.70;;;;;;;;;;5056644;28;20185;-67
2022/10/25 05:57:29;;;;;;;9.63;2.97;;;;;;;;;;5056648;28;20210;-67
2022/10/25 05:59:55;;;;;;;7.13;2.80;;;;;;;;;;5056605;28;20183;-67
2022/10/25 06:02:21;;;;;;;10.40;3.53;;;;;;;;;;5056392;28;20182;-67
2022/10/25 06:04:47;;;;;;;10.37;3.23;;;;;;;;;;5038544;28;20175;-67
2022/10/25 06:07:13;;;;;;;10.73;3.13;;;;;;;;;;5038425;28;20214;-67
2022/10/25 06:09:39;;;;;;;13.67;2.80;;;;;;;;;;5056570;28;20265;-67
2022/10/25 06:12:05;;;;;;;7.67;2.93;;;;;;;;;;5038402;28;20179;-67
2022/10/25 06:14:31;;;;;;;10.13;3.00;;;;;;;;;;5056270;28;20505;-67
2022/10/25 06:16:57;;;;;;;10.03;3.17;;;;;;;;;;5056126;28;20198;-67
2022/10/25 06:19:23;;;;;;;9.50;3.13;;;;;;;;;;5056972;28;20174;-67
2022/10/25 06:21:49;;;;;;;14.33;3.83;;;;;;;;;;5056146;28;20257;-67
2022/10/25 06:24:15;;;;;;;6.80;3.27;;;;;;;;;;5038236;28;20273;-67
2022/10/25 06:26:41;;;;;;;10.90;3.20;;;;;;;;;;5055979;28;20222;-66
2022/10/25 06:29:07;;;;;;;9.07;3.23;;;;;;;;;;5056066;28;20189;-66
2022/10/25 06:31:33;;;;;;;18.97;3.20;;;;;;;;;;5056033;28;20284;-68
2022/10/25 06:33:59;;;;;;;12.70;3.43;;;;;;;;;;5056383;28;20195;-67
2022/10/25 06:36:26;;;;;;;11.40;3.27;;;;;;;;;;5055787;28;20210;-67
2022/10/25 06:38:52;;;;;;;11.87;3.13;;;;;;;;;;5055869;28;20202;-67
2022/10/25 06:41:20;;;;;;;13.47;3.40;;;;;;;;;;5056368;28;20615;-67
2022/10/25 06:43:46;;;;;;;11.17;3.73;;;;;;;;;;5037775;28;20178;-67
2022/10/25 06:46:21;;;;;;;11.23;3.83;;;;;;;;;;5055707;28;20194;-67
2022/10/25 06:48:48;;;;;;;13.87;4.10;;;;;;;;;;5055680;28;20239;-66
2022/10/25 06:51:13;;;;;;;13.93;3.47;;;;;;;;;;5055776;28;20187;-67
2022/10/25 06:53:39;;;;;;;13.57;3.43;;;;;;;;;;5055800;28;20178;-66
2022/10/25 06:56:09;;;;;;;9.80;3.53;;;;;;;;;;5055709;28;20281;-67
2022/10/25 06:58:35;;;;;;;11.83;3.20;;;;;;;;;;5038038;28;20578;-67
2022/10/25 07:01:02;;;;;;;12.53;3.27;;;;;;;;;;5054243;28;20669;-67
2022/10/25 07:03:33;;;;;;;12.80;3.53;;;;;;;;;;5055326;28;20525;-66
2022/10/25 07:06:00;;;;;;;9.60;3.37;;;;;;;;;;5037370;28;20221;-67
2022/10/25 07:08:25;;;;;;;13.10;3.33;;;;;;;;;;5055191;28;20189;-66
2022/10/25 07:10:55;;;;;;;9.27;3.20;;;;;;;;;;5055061;28;20261;-67
2022/10/25 07:13:21;;;;;;;14.33;3.50;;;;;;;;;;5054952;28;20651;-67
2022/10/25 07:15:47;;;;;;;12.70;3.20;;;;;;;;;;5037039;28;20207;-67
2022/10/25 07:18:13;;;;;;;9.70;3.10;;;;;;;;;;5037073;28;20352;-67
2022/10/25 07:20:39;;;;;;;13.90;3.77;;;;;;;;;;5055145;28;20179;-67
2022/10/25 07:23:05;;;;;;;13.67;3.90;;;;;;;;;;5037267;28;20178;-67
2022/10/25 07:25:30;;;;;;;12.73;3.23;;;;;;;;;;5054812;28;20205;-67
2022/10/25 07:27:56;;;;;;;13.53;3.43;;;;;;;;;;5037030;28;20178;-67
2022/10/25 07:30:22;;;;;;;12.47;3.77;;;;;;;;;;5036945;28;20189;-67
2022/10/25 07:32:49;;;;;;;13.10;3.60;;;;;;;;;;5055311;28;20178;-67
2022/10/25 07:35:15;;;;;;;9.73;3.40;;;;;;;;;;5054795;28;20189;-66
2022/10/25 07:37:40;;;;;;;12.40;3.57;;;;;;;;;;5054520;28;20202;-67
2022/10/25 07:40:07;;;;;;;13.97;4.20;;;;;;;;;;5036693;28;20179;-67
2022/10/25 07:42:32;;;;;;;6.80;3.43;;;;;;;;;;5054551;28;20179;-67
2022/10/25 07:44:58;;;;;;;13.27;3.47;;;;;;;;;;5036712;28;20185;-67
2022/10/25 07:47:24;;;;;;;11.70;3.67;;;;;;;;;;5054571;28;20217;-67
2022/10/25 07:49:50;;;;;;;8.27;3.30;;;;;;;;;;5054471;28;20185;-67
2022/10/25 07:52:16;;;;;;;8.97;3.70;;;;;;;;;;5054709;28;20179;-67
2022/10/25 07:54:42;;;;;;;11.87;4.53;;;;;;;;;;5055289;28;20665;-67
2022/10/25 07:57:09;;;;;;;12.33;4.73;;;;;;;;;;5054778;28;20214;-67
2022/10/25 07:59:35;;;;;;;11.93;3.77;;;;;;;;;;5055065;28;20193;-67
2022/10/25 08:02:01;;;;;;;10.13;3.53;;;;;;;;;;5055378;28;20663;-67
2022/10/25 08:04:30;;;;;;;14.73;3.87;;;;;;;;;;5054991;28;20182;-67
2022/10/25 08:06:59;;;;;;;11.00;3.60;;;;;;;;;;5054704;28;20210;-66
2022/10/25 08:09:25;;;;;;;10.87;4.10;;;;;;;;;;5036818;28;20236;-67
2022/10/25 08:11:51;;;;;;;9.13;3.90;;;;;;;;;;5036322;28;20182;-67
2022/10/25 08:14:17;;;;;;;13.20;3.67;;;;;;;;;;5055011;28;20261;-66
2022/10/25 08:16:43;;;;;;;10.20;3.70;;;;;;;;;;5054335;28;20194;-66
2022/10/25 08:19:09;;;;;;;9.60;3.90;;;;;;;;;;5036345;28;20288;-67
2022/10/25 08:21:35;;;;;;;9.80;4.07;;;;;;;;;;5036455;28;20618;-67
2022/10/25 08:24:00;;;;;;;10.13;3.50;;;;;;;;;;5054205;28;20642;-67
2022/10/25 08:26:28;;;;;;;10.27;3.40;;;;;;;;;;5053798;28;20666;-67
2022/10/25 08:28:54;;;;;;;12.07;3.80;;;;;;;;;;5053894;28;20182;-67
2022/10/25 08:31:20;;;;;;;12.30;3.33;;;;;;;;;;5053731;28;20187;-67
2022/10/25 08:33:46;;;;;;;12.60;3.53;;;;;;;;;;5053673;28;20638;-67
2022/10/25 08:36:12;;;;;;;13.40;3.70;;;;;;;;;;5035736;28;20697;-67
2022/10/25 08:38:37;;;;;;;7.37;3.30;;;;;;;;;;5053530;28;20293;-66
2022/10/25 08:41:13;;;;;;;7.73;3.40;;;;;;;;;;5053766;28;20236;-66
2022/10/25 08:43:39;;;;;;;12.63;3.30;;;;;;;;;;5053891;28;20234;-66
2022/10/25 08:46:23;;;;;;;7.87;3.40;;;;;;;;;;5053545;28;20202;-67
2022/10/25 08:48:52;;;;;;;10.67;3.20;;;;;;;;;;5053688;28;20542;-67
2022/10/25 08:51:22;;;;;;;8.73;3.10;;;;;;;;;;5053396;28;20190;-67
2022/10/25 08:53:49;;;;;;;9.80;3.40;;;;;;;;;;5053659;28;20175;-66
2022/10/25 08:56:17;;;;;;;10.43;3.13;;;;;;;;;;5035659;28;20208;-66
2022/10/25 08:58:52;;;;;;;8.60;3.40;;;;;;;;;;5035711;28;20675;-65
2022/10/25 09:01:22;;;;;;;6.93;2.70;;;;;;;;;;5035885;28;20268;-67
2022/10/25 09:03:47;;;;;;;8.57;3.10;;;;;;;;;;5035349;28;20178;-67
2022/10/25 09:06:32;;;;;;;6.93;3.00;;;;;;;;;;5053135;28;20296;-66
2022/10/25 09:09:03;;;;;;;11.07;3.43;;;;;;;;;;5053259;28;20650;-66
2022/10/25 09:11:29;;;;;;;9.63;3.23;;;;;;;;;;5053413;28;20217;-66
2022/10/25 09:14:05;;;;;;;8.50;2.80;;;;;;;;;;5035409;28;20183;-66
2022/10/25 09:16:34;;;;;;;8.83;3.30;;;;;;;;;;5053284;28;20229;-66
2022/10/25 09:19:00;;;;;;;8.07;2.80;;;;;;;;;;5053334;28;20203;-66
2022/10/25 09:21:35;;;;;;;7.83;3.30;;;;;;;;;;5053093;28;20182;-67
2022/10/25 09:24:04;;;;;;;7.20;2.87;;;;;;;;;;5052550;28;20178;-66
2022/10/25 09:26:51;;;;;;;9.93;3.20;;;;;;;;;;5034980;28;20228;-67
2022/10/25 09:29:37;;;;;;;7.30;2.70;;;;;;;;;;5012629;28;20195;-66
2022/10/25 09:32:07;;;;;;;5.97;2.93;;;;;;;;;;5035079;28;20178;-67
2022/10/25 09:34:33;;;;;;;6.80;2.73;;;;;;;;;;5052969;28;20232;-67
2022/10/25 09:37:04;;;;;;;11.97;3.17;;;;;;;;;;5052802;28;20193;-66
2022/10/25 09:39:35;;;;;;;8.77;2.73;;;;;;;;;;5053149;28;20174;-67
2022/10/25 09:42:02;;;;;;;6.07;2.30;;;;;;;;;;5052837;28;20170;-66
2022/10/25 09:44:28;;;;;;;6.73;2.50;;;;;;;;;;5034868;28;20182;-66
2022/10/25 09:46:56;;;;;;;7.33;2.60;;;;;;;;;;5053026;28;20202;-67
2022/10/25 09:49:51;;;;;;;9.60;2.60;;;;;;;;;;5052847;28;20214;-66
2022/10/25 09:52:22;;;;;;;7.83;2.60;;;;;;;;;;5035746;28;20209;-67
2022/10/25 09:54:59;;;;;;;8.03;2.80;;;;;;;;;;5035417;28;20173;-66
2022/10/25 09:57:25;;;;;;;6.40;2.63;;;;;;;;;;5034817;28;20213;-67
2022/10/25 09:59:51;;;;;;;6.30;2.70;;;;;;;;;;5052633;28;20175;-66
2022/10/25 10:02:21;;;;;;;8.27;2.50;;;;;;;;;;5053000;28;20262;-67
2022/10/25 10:04:46;;;;;;;8.53;2.90;;;;;;;;;;5034831;28;20261;-67
2022/10/25 10:07:15;;;;;;;8.73;2.70;;;;;;;;;;5034907;28;20332;-65
2022/10/25 10:09:42;;;;;;;7.00;2.53;;;;;;;;;;5053356;28;20275;-67
2022/10/25 10:12:15;;;;;;;7.47;2.70;;;;;;;;;;5034696;28;20179;-68
2022/10/25 10:14:44;;;;;;;6.87;2.43;;;;;;;;;;5052826;28;20187;-67
2022/10/25 10:17:12;;;;;;;10.10;3.20;;;;;;;;;;5068973;22;20728;-68
2022/10/25 10:19:39;;;;;;;7.80;2.67;;;;;;;;;;5051304;28;20232;-68
2022/10/25 10:22:12;;;;;;;9.07;3.93;;;;;;;;;;5052455;28;20229;-68
2022/10/25 10:24:42;;;;;;;7.70;2.60;;;;;;;;;;5052412;28;20170;-68
2022/10/25 10:27:10;;;;;;;7.27;2.83;;;;;;;;;;5052835;28;20202;-68
2022/10/25 10:29:37;;;;;;;6.07;2.90;;;;;;;;;;5051053;28;20178;-68
2022/10/25 10:32:05;;;;;;;8.57;3.27;;;;;;;;;;5050912;28;20635;-68
2022/10/25 10:34:50;;;;;;;4.57;2.30;;;;;;;;;;5053424;28;20171;-68
2022/10/25 10:37:17;;;;;;;7.67;2.60;;;;;;;;;;5055708;28;20222;-68
2022/10/25 10:40:02;;;;;;;7.67;2.27;;;;;;;;;;5056404;28;20528;-69
2022/10/25 10:42:28;;;;;;;5.13;2.27;;;;;;;;;;5054433;28;20186;-68
2022/10/25 10:45:01;;;;;;;7.80;2.73;;;;;;;;;;5056037;28;20175;-68
2022/10/25 10:47:31;;;;;;;5.50;2.20;;;;;;;;;;5055782;28;20243;-67
2022/10/25 10:49:57;;;;;;;7.10;2.50;;;;;;;;;;5055620;28;20650;-67
2022/10/25 10:52:28;;;;;;;10.23;2.83;;;;;;;;;;5055691;28;20183;-68
2022/10/25 10:54:54;;;;;;;9.93;3.00;;;;;;;;;;5054367;28;20178;-67
2022/10/25 10:57:23;;;;;;;9.10;3.27;;;;;;;;;;5055333;28;20221;-68
2022/10/25 10:59:53;;;;;;;6.80;3.30;;;;;;;;;;5055629;28;20181;-68
2022/10/25 11:02:24;;;;;;;6.60;3.20;;;;;;;;;;5054116;28;20273;-67
2022/10/25 11:04:51;;;;;;;6.63;2.60;;;;;;;;;;5054013;28;20651;-68
2022/10/25 11:07:35;;;;;;;7.40;2.50;;;;;;;;;;5054032;28;20194;-68
2022/10/25 11:10:16;;;;;;;5.10;2.40;;;;;;;;;;5053802;28;20170;-68
2022/10/25 11:12:43;;;;;;;4.87;2.10;;;;;;;;;;5055164;28;20181;-68
2022/10/25 11:15:15;;;;;;;8.00;2.70;;;;;;;;;;5053885;28;20219;-68
2022/10/25 11:18:02;;;;;;;6.47;2.20;;;;;;;;;;5053498;28;20214;-68
2022/10/25 11:20:47;;;;;;;6.00;2.20;;;;;;;;;;5054560;28;20175;-68
2022/10/25 11:23:18;;;;;;;4.93;1.77;;;;;;;;;;5054952;28;20545;-68
2022/10/25 11:25:52;;;;;;;6.97;2.10;;;;;;;;;;5055264;28;20194;-67
2022/10/25 11:28:30;;;;;;;5.10;2.30;;;;;;;;;;5054987;28;20184;-68
2022/10/25 11:31:14;;;;;;;6.67;2.20;;;;;;;;;;5054784;28;20309;-68
2022/10/25 11:33:44;;;;;;;3.57;2.10;;;;;;;;;;5054811;28;20209;-68
2022/10/25 11:36:19;;;;;;;5.13;2.20;;;;;;;;;;5054613;28;20281;-68
2022/10/25 11:39:04;;;;;;;4.40;1.80;;;;;;;;;;5053368;28;20228;-67
2022/10/25 11:41:36;;;;;;;10.83;2.73;;;;;;;;;;5054850;28;20182;-68
2022/10/25 11:44:21;;;;;;;6.27;2.13;;;;;;;;;;5053337;28;20182;-68
2022/10/25 11:46:54;;;;;;;3.90;2.00;;;;;;;;;;5052484;28;20293;-68
2022/10/25 11:49:26;;;;;;;5.27;2.23;;;;;;;;;;5054276;28;20663;-68
2022/10/25 11:52:11;;;;;;;3.50;2.00;;;;;;;;;;5054369;28;20171;-68
2022/10/25 11:54:40;;;;;;;3.43;2.10;;;;;;;;;;5054428;28;20194;-68
2022/10/25 11:57:09;;;;;;;6.10;2.20;;;;;;;;;;5053151;28;20571;-68
2022/10/25 11:59:41;;;;;;;8.40;2.83;;;;;;;;;;5054552;28;20190;-68
2022/10/25 12:02:17;;;;;;;3.67;2.23;;;;;;;;;;5054460;28;20174;-68
2022/10/25 12:04:53;;;;;;;7.40;2.30;;;;;;;;;;5054539;28;20182;-68
2022/10/25 12:07:19;;;;;;;6.77;2.10;;;;;;;;;;5052846;28;20305;-67
2022/10/25 12:10:04;;;;;;;5.03;2.03;;;;;;;;;;5052905;28;20248;-68
2022/10/25 12:12:42;;;;;;;4.37;2.00;;;;;;;;;;5052857;28;20194;-68
2022/10/25 12:15:12;;;;;;;5.17;1.80;;;;;;;;;;5054326;28;20646;-68
2022/10/25 12:17:38;;;;;;;4.40;2.20;;;;;;;;;;5053921;28;20214;-68
2022/10/25 12:20:06;;;;;;;4.13;2.13;;;;;;;;;;5054297;28;20175;-67
2022/10/25 12:22:41;;;;;;;6.50;2.43;;;;;;;;;;5053888;28;20178;-68
2022/10/25 12:25:13;;;;;;;6.70;2.00;;;;;;;;;;5053912;28;20170;-68
2022/10/25 12:27:40;;;;;;;4.90;1.80;;;;;;;;;;5054134;28;20178;-68
2022/10/25 12:30:13;;;;;;;5.00;2.00;;;;;;;;;;5053774;28;20206;-68
2022/10/25 12:32:43;;;;;;;3.57;1.90;;;;;;;;;;5054387;28;20170;-68
2022/10/25 12:35:24;;;;;;;6.13;2.20;;;;;;;;;;5052439;28;20197;-68
2022/10/25 12:37:53;;;;;;;5.53;2.00;;;;;;;;;;5052440;28;20216;-68
2022/10/25 12:40:20;;;;;;;7.57;2.20;;;;;;;;;;5053572;28;20186;-68
2022/10/25 12:42:53;;;;;;;7.77;2.43;;;;;;;;;;5052215;28;20174;-68
2022/10/25 12:45:31;;;;;;;6.17;2.50;;;;;;;;;;5053220;28;20171;-68
2022/10/25 12:47:57;;;;;;;7.00;2.27;;;;;;;;;;5052203;28;20174;-68
2022/10/25 12:50:23;;;;;;;4.77;2.20;;;;;;;;;;5052186;28;20182;-68
2022/10/25 12:53:08;;;;;;;10.73;2.47;;;;;;;;;;5053441;28;20364;-68
2022/10/25 12:55:52;;;;;;;7.10;2.57;;;;;;;;;;5052288;28;20617;-68
2022/10/25 12:58:33;;;;;;;6.03;2.40;;;;;;;;;;5052401;28;20209;-68
2022/10/25 13:01:23;;;;;;;7.50;2.40;;;;;;;;;;5053332;28;20198;-68
2022/10/25 13:04:08;;;;;;;5.63;2.30;;;;;;;;;;5051979;28;20210;-68
2022/10/25 13:06:38;;;;;;;5.90;2.50;;;;;;;;;;5053055;28;20758;-67
2022/10/25 13:09:06;;;;;;;7.13;2.50;;;;;;;;;;5053453;28;20657;-67
2022/10/25 13:11:33;;;;;;;8.50;2.50;;;;;;;;;;5053448;28;20178;-67
2022/10/25 13:13:59;;;;;;;6.33;2.20;;;;;;;;;;5052246;28;20184;-67
2022/10/25 13:16:27;;;;;;;8.27;3.93;;;;;;;;;;5053325;28;20218;-67
2022/10/25 13:19:11;;;;;;;7.30;2.63;;;;;;;;;;5053069;28;20214;-67
2022/10/25 13:21:52;;;;;;;6.33;2.40;;;;;;;;;;5051886;28;20209;-68
2022/10/25 13:24:37;;;;;;;5.50;2.70;;;;;;;;;;5053698;28;20240;-67
2022/10/25 13:27:23;;;;;;;8.73;2.77;;;;;;;;;;5053234;28;20198;-67
2022/10/25 13:30:00;;;;;;;8.03;2.83;;;;;;;;;;5052023;28;20178;-67
2022/10/25 13:32:27;;;;;;;6.17;2.40;;;;;;;;;;5053206;28;20178;-67
2022/10/25 13:34:57;;;;;;;12.77;2.70;;;;;;;;;;5052582;28;20658;-67
2022/10/25 13:37:29;;;;;;;8.60;2.27;;;;;;;;;;5059253;28;20206;-68
2022/10/25 13:39:57;;;;;;;8.80;5.27;;;;;;;;;;5060025;28;20197;-67
2022/10/25 13:42:31;;;;;;;6.50;2.97;;;;;;;;;;5061195;28;20186;-68
2022/10/25 13:45:03;;;;;;;6.43;3.33;;;;;;;;;;5066510;28;20178;-68
2022/10/25 13:47:37;;;;;;;14.00;4.13;;;;;;;;;;5055905;28;20206;-68
2022/10/25 13:50:21;;;;;;;9.73;3.20;;;;;;;;;;5053184;28;20178;-68
2022/10/25 13:53:00;;;;;;;6.57;3.60;;;;;;;;;;5051709;28;20177;-68
2022/10/25 13:55:28;;;;;;;7.93;3.23;;;;;;;;;;5051461;28;20174;-68
2022/10/25 13:57:54;;;;;;;9.77;3.00;;;;;;;;;;5053031;28;20198;-68
2022/10/25 14:00:26;;;;;;;6.07;3.23;;;;;;;;;;5052999;28;20254;-68
2022/10/25 14:03:21;;;;;;;5.90;2.93;;;;;;;;;;5053000;28;20232;-68
2022/10/25 14:05:54;;;;;;;7.77;3.33;;;;;;;;;;5039677;28;20591;-68
2022/10/25 14:08:29;;;;;;;8.27;3.20;;;;;;;;;;5052822;28;20187;-68
2022/10/25 14:11:07;;;;;;;5.40;2.00;;;;;;;;;;5056619;28;20178;-68
2022/10/25 14:13:39;;;;;;;5.40;2.30;;;;;;;;;;5055636;28;20321;-67
2022/10/25 14:16:05;;;;;;;9.80;2.30;;;;;;;;;;5055018;28;20210;-67
2022/10/25 14:18:34;;;;;;;8.50;3.50;;;;;;;;;;5056154;28;20214;-68
2022/10/25 14:21:04;;;;;;;6.30;2.00;;;;;;;;;;5054905;28;20186;-68
2022/10/25 14:23:32;;;;;;;5.37;2.40;;;;;;;;;;5056045;28;20185;-68
2022/10/25 14:25:59;;;;;;;6.50;2.87;;;;;;;;;;5054612;28;20208;-67
2022/10/25 14:28:29;;;;;;;5.43;2.63;;;;;;;;;;5056106;28;20697;-68
2022/10/25 14:30:59;;;;;;;7.10;2.33;;;;;;;;;;5054673;28;20297;-68
2022/10/25 14:33:27;;;;;;;6.60;2.10;;;;;;;;;;5055978;28;20669;-68
2022/10/25 14:35:55;;;;;;;3.13;1.90;;;;;;;;;;5056039;28;20198;-66
2022/10/25 14:38:30;;;;;;;6.07;2.00;;;;;;;;;;5055740;28;20340;-68
2022/10/25 14:40:58;;;;;;;6.93;1.97;;;;;;;;;;5056065;28;20245;-67
2022/10/25 14:43:26;;;;;;;5.53;2.37;;;;;;;;;;5055996;28;20186;-67
2022/10/25 14:46:01;;;;;;;2.40;1.40;;;;;;;;;;5055642;28;20194;-67
2022/10/25 14:48:27;;;;;;;4.77;2.80;;;;;;;;;;5055645;28;20193;-67
2022/10/25 14:50:54;;;;;;;4.23;1.90;;;;;;;;;;5055600;28;20178;-68
2022/10/25 14:53:20;;;;;;;3.80;1.80;;;;;;;;;;5054418;28;20198;-67
2022/10/25 14:55:54;;;;;;;4.87;1.70;;;;;;;;;;5054101;28;20237;-68